createdAt,value
2024-03-16T00:02:04.673Z,40.30
2024-03-16T00:04:34.034Z,37.90
2024-03-16T00:07:02.493Z,38.80
2024-03-16T00:09:31.137Z,37.60
2024-03-16T00:11:59.523Z,34.40
2024-03-16T00:14:28.009Z,33.80
2024-03-16T00:16:56.751Z,35.50
2024-03-16T00:19:26.033Z,36.20
2024-03-16T00:21:54.417Z,37.40
2024-03-16T00:24:22.668Z,39.20
2024-03-16T00:26:51.084Z,40.90
2024-03-16T00:29:19.503Z,36.60
2024-03-16T00:31:50.330Z,37.40
2024-03-16T00:34:18.927Z,36.80
2024-03-16T00:36:47.378Z,37.50
2024-03-16T00:39:19.655Z,35.10
2024-03-16T00:41:49.036Z,35.50
2024-03-16T00:44:17.556Z,37.40
2024-03-16T00:46:47.080Z,39.70
2024-03-16T00:51:45.347Z,38.30
2024-03-16T00:54:13.803Z,39.30
2024-03-16T00:56:42.160Z,34.20
2024-03-16T00:59:10.547Z,37.50
2024-03-16T01:01:39.073Z,37.90
2024-03-16T01:04:07.490Z,36.70
2024-03-16T01:06:35.850Z,37.60
2024-03-16T01:09:05.117Z,37.90
2024-03-16T01:11:33.735Z,37.40
2024-03-16T01:14:02.259Z,41.10
2024-03-16T01:16:30.676Z,36.70
2024-03-16T01:18:59.162Z,37.60
2024-03-16T01:21:27.629Z,37.70
2024-03-16T01:23:55.817Z,39.10
2024-03-16T01:26:24.170Z,36.80
2024-03-16T01:28:52.519Z,39.90
2024-03-16T01:31:20.830Z,41.40
2024-03-16T01:33:48.877Z,41.70
2024-03-16T01:36:17.327Z,42.30
2024-03-16T01:38:45.930Z,39.00
2024-03-16T01:41:14.441Z,37.20
2024-03-16T01:43:49.140Z,42.70
2024-03-16T01:46:18.404Z,38.30
2024-03-16T01:48:50.567Z,39.60
2024-03-16T01:51:19.232Z,37.50
2024-03-16T01:53:47.619Z,36.80
2024-03-16T01:56:16.188Z,37.10
2024-03-16T01:58:46.806Z,39.80
2024-03-16T02:01:15.059Z,39.60
2024-03-16T02:03:44.422Z,39.40
2024-03-16T02:06:13.008Z,37.50
2024-03-16T02:08:41.314Z,38.10
2024-03-16T02:11:09.734Z,39.30
2024-03-16T02:13:38.124Z,37.80
2024-03-16T02:16:06.966Z,41.30
2024-03-16T02:18:35.312Z,39.40
2024-03-16T02:21:06.176Z,36.90
2024-03-16T02:23:34.724Z,37.40
2024-03-16T02:26:03.667Z,40.30
2024-03-16T02:28:32.007Z,39.00
2024-03-16T02:31:00.430Z,39.90
2024-03-16T02:33:28.978Z,37.00
2024-03-16T02:35:58.416Z,36.30
2024-03-16T02:38:26.615Z,38.50
2024-03-16T02:40:55.170Z,35.70
2024-03-16T02:43:23.790Z,36.60
2024-03-16T02:45:53.708Z,40.00
2024-03-16T02:48:22.162Z,40.90
2024-03-16T02:50:50.540Z,38.30
2024-03-16T02:53:19.417Z,40.20
2024-03-16T02:55:47.962Z,38.20
2024-03-16T02:58:16.364Z,39.80
2024-03-16T03:00:45.537Z,38.70
2024-03-16T03:03:14.011Z,36.10
2024-03-16T03:05:42.181Z,37.20
2024-03-16T03:08:11.356Z,37.60
2024-03-16T03:10:42.804Z,37.20
2024-03-16T03:13:11.491Z,37.60
2024-03-16T03:15:40.138Z,39.40
2024-03-16T03:18:08.698Z,35.60
2024-03-16T03:20:37.099Z,41.20
2024-03-16T03:23:06.697Z,36.30
2024-03-16T03:25:37.237Z,42.00
2024-03-16T03:28:05.858Z,38.00
2024-03-16T03:30:34.317Z,41.00
2024-03-16T03:33:02.749Z,38.60
2024-03-16T03:35:33.029Z,36.90
2024-03-16T03:38:01.452Z,42.10
2024-03-16T03:40:30.283Z,42.60
2024-03-16T03:43:01.824Z,41.00
2024-03-16T03:45:49.675Z,41.60
2024-03-16T03:48:24.520Z,40.60
2024-03-16T03:50:55.523Z,42.10
2024-03-16T03:53:28.459Z,42.20
2024-03-16T03:55:56.933Z,41.50
2024-03-16T03:58:25.874Z,41.80
2024-03-16T04:00:54.456Z,40.20
2024-03-16T04:03:22.944Z,40.10
2024-03-16T04:05:54.573Z,40.00
2024-03-16T04:08:23.028Z,41.20
2024-03-16T04:10:51.489Z,42.20
2024-03-16T04:13:19.685Z,40.00
2024-03-16T04:15:48.177Z,34.00
2024-03-16T04:18:16.384Z,37.30
2024-03-16T04:20:44.671Z,40.00
2024-03-16T04:23:13.869Z,43.90
2024-03-16T04:25:42.227Z,45.50
2024-03-16T04:28:13.231Z,44.70
2024-03-16T04:30:41.808Z,41.20
2024-03-16T04:33:10.239Z,43.10
2024-03-16T04:35:38.705Z,44.50
2024-03-16T04:38:09.289Z,46.40
2024-03-16T04:40:37.640Z,44.70
2024-03-16T04:43:06.268Z,44.30
2024-03-16T04:45:34.781Z,45.50
2024-03-16T04:48:03.323Z,44.10
2024-03-16T04:50:31.842Z,43.70
2024-03-16T04:52:59.862Z,46.60
2024-03-16T04:55:28.299Z,39.50
2024-03-16T04:57:58.882Z,42.70
2024-03-16T05:00:27.655Z,36.10
2024-03-16T05:02:56.345Z,40.70
2024-03-16T05:05:24.620Z,43.60
2024-03-16T05:07:53.080Z,42.30
2024-03-16T05:10:21.605Z,43.10
2024-03-16T05:12:51.483Z,41.70
2024-03-16T05:15:19.985Z,41.30
2024-03-16T05:17:48.347Z,42.70
2024-03-16T05:20:16.647Z,42.40
2024-03-16T05:22:44.901Z,40.20
2024-03-16T05:25:13.211Z,44.40
2024-03-16T05:27:41.773Z,47.90
2024-03-16T05:30:10.839Z,44.60
2024-03-16T05:32:39.394Z,46.90
2024-03-16T05:35:09.979Z,49.80
2024-03-16T05:37:38.750Z,48.60
2024-03-16T05:40:07.903Z,45.50
2024-03-16T05:42:38.906Z,45.80
2024-03-16T05:45:08.584Z,45.70
2024-03-16T05:50:07.090Z,41.30
2024-03-16T05:52:37.046Z,43.20
2024-03-16T05:55:06.379Z,47.20
2024-03-16T05:57:34.908Z,42.50
2024-03-16T06:00:05.290Z,38.20
2024-03-16T06:02:41.521Z,35.30
2024-03-16T06:05:10.808Z,40.00
2024-03-16T06:07:39.255Z,39.30
2024-03-16T06:10:12.043Z,32.00
2024-03-16T06:12:40.685Z,36.60
2024-03-16T06:15:10.170Z,32.90
2024-03-16T06:17:38.623Z,35.80
2024-03-16T06:20:08.209Z,31.60
2024-03-16T06:25:05.803Z,31.00
2024-03-16T06:30:04.009Z,33.60
2024-03-16T06:32:35.590Z,35.80
2024-03-16T06:35:05.730Z,37.40
2024-03-16T06:37:34.049Z,33.90
2024-03-16T06:40:02.489Z,36.10
2024-03-16T06:42:30.767Z,34.70
2024-03-16T06:44:59.396Z,37.40
2024-03-16T06:47:28.883Z,31.40
2024-03-16T06:52:28.440Z,37.10
2024-03-16T06:54:56.852Z,38.10
2024-03-16T06:57:26.228Z,40.30
2024-03-16T06:59:54.627Z,39.20
2024-03-16T07:02:23.277Z,38.80
2024-03-16T07:04:51.782Z,38.00
2024-03-16T07:07:20.178Z,37.40
2024-03-16T07:09:48.813Z,39.70
2024-03-16T07:12:17.228Z,38.20
2024-03-16T07:14:45.747Z,40.50
2024-03-16T07:17:14.145Z,40.30
2024-03-16T07:19:42.331Z,48.30
2024-03-16T07:22:11.009Z,40.20
2024-03-16T07:24:39.703Z,41.90
2024-03-16T07:27:08.646Z,37.80
2024-03-16T07:29:37.843Z,40.40
2024-03-16T07:32:07.161Z,39.50
2024-03-16T07:37:05.606Z,37.30
2024-03-16T07:39:34.096Z,37.10
2024-03-16T07:42:02.635Z,34.20
2024-03-16T07:44:32.543Z,37.30
2024-03-16T07:47:01.376Z,31.40
2024-03-16T07:49:30.283Z,28.10
2024-03-16T07:51:59.034Z,28.90
2024-03-16T07:54:27.197Z,35.80
2024-03-16T07:56:55.539Z,30.30
2024-03-16T07:59:24.020Z,27.70
2024-03-16T08:01:52.488Z,21.70
2024-03-16T08:04:21.236Z,17.10
2024-03-16T08:06:49.683Z,21.70
2024-03-16T08:09:18.363Z,21.20
2024-03-16T08:11:46.779Z,18.20
2024-03-16T08:14:15.394Z,20.30
2024-03-16T08:16:43.690Z,21.90
2024-03-16T08:19:12.429Z,21.20
2024-03-16T08:21:41.180Z,23.20
2024-03-16T08:24:09.695Z,20.10
2024-03-16T08:26:38.224Z,21.60
2024-03-16T08:29:06.769Z,19.00
2024-03-16T08:31:35.199Z,18.60
2024-03-16T08:34:03.654Z,17.90
2024-03-16T08:36:32.391Z,19.10
2024-03-16T08:39:04.946Z,21.80
2024-03-16T08:41:33.397Z,20.50
2024-03-16T08:44:01.835Z,21.10
2024-03-16T08:46:30.470Z,17.10
2024-03-16T08:48:59.512Z,17.40
2024-03-16T08:51:28.431Z,18.30
2024-03-16T08:53:57.227Z,19.30
2024-03-16T08:56:29.367Z,20.00
2024-03-16T08:58:57.876Z,21.70
2024-03-16T09:01:26.325Z,18.20
2024-03-16T09:03:54.793Z,14.60
2024-03-16T09:06:23.286Z,13.10
2024-03-16T09:08:51.947Z,13.50
2024-03-16T09:11:20.185Z,15.50
2024-03-16T09:13:48.352Z,16.00
2024-03-16T09:16:17.042Z,16.80
2024-03-16T09:18:46.516Z,15.60
2024-03-16T09:21:15.079Z,16.80
2024-03-16T09:23:43.275Z,15.40
2024-03-16T09:26:12.043Z,14.40
2024-03-16T09:28:40.411Z,14.90
2024-03-16T09:31:11.674Z,12.00
2024-03-16T09:33:40.262Z,10.70
2024-03-16T09:36:08.686Z,10.60
2024-03-16T09:38:37.474Z,11.10
2024-03-16T09:41:05.926Z,10.70
2024-03-16T09:43:35.021Z,11.90
2024-03-16T09:46:05.549Z,14.70
2024-03-16T09:48:34.092Z,12.40
2024-03-16T09:51:02.913Z,12.80
2024-03-16T09:53:33.413Z,12.30
2024-03-16T09:56:11.581Z,11.50
2024-03-16T09:58:41.269Z,13.80
2024-03-16T10:01:10.943Z,11.40
2024-03-16T10:03:39.329Z,11.60
2024-03-16T10:06:10.271Z,11.10
2024-03-16T10:08:38.454Z,12.60
2024-03-16T10:11:17.075Z,15.00
2024-03-16T10:13:54.843Z,14.70
2024-03-16T10:16:22.888Z,15.10
2024-03-16T10:18:53.866Z,14.60
2024-03-16T10:21:22.139Z,13.70
2024-03-16T10:23:50.530Z,12.80
2024-03-16T10:26:18.839Z,15.40
2024-03-16T10:28:47.372Z,14.00
2024-03-16T10:31:16.080Z,13.20
2024-03-16T10:33:44.487Z,14.50
2024-03-16T10:36:19.174Z,13.10
2024-03-16T10:38:48.183Z,14.70
2024-03-16T10:41:17.795Z,15.50
2024-03-16T10:43:48.712Z,12.80
2024-03-16T10:46:17.119Z,14.00
2024-03-16T10:48:46.609Z,12.20
2024-03-16T10:51:19.014Z,12.40
2024-03-16T10:53:47.995Z,13.20
2024-03-16T10:56:17.733Z,14.40
2024-03-16T10:58:46.053Z,12.30
2024-03-16T11:01:19.651Z,13.40
2024-03-16T11:03:56.660Z,13.80
2024-03-16T11:06:26.805Z,12.50
2024-03-16T11:08:54.891Z,9.70
2024-03-16T11:11:29.870Z,10.90
2024-03-16T11:13:59.584Z,10.10
2024-03-16T11:16:35.175Z,9.10
2024-03-16T11:19:08.969Z,9.00
2024-03-16T11:21:39.828Z,10.50
2024-03-16T11:24:15.024Z,10.40
2024-03-16T11:26:45.064Z,12.10
2024-03-16T11:29:22.588Z,9.40
2024-03-16T11:31:54.802Z,10.00
2024-03-16T11:34:23.823Z,10.10
2024-03-16T11:36:55.013Z,9.80
2024-03-16T11:39:26.605Z,9.90
2024-03-16T11:42:14.389Z,10.50
2024-03-16T11:44:47.162Z,10.40
2024-03-16T11:47:17.572Z,11.20
2024-03-16T11:49:45.861Z,8.90
2024-03-16T11:52:14.111Z,10.10
2024-03-16T11:54:49.112Z,9.60
2024-03-16T11:57:17.573Z,11.30
2024-03-16T11:59:46.981Z,8.10
2024-03-16T12:02:15.554Z,8.80
2024-03-16T12:04:43.964Z,9.50
2024-03-16T12:07:12.609Z,9.60
2024-03-16T12:09:56.757Z,10.10
2024-03-16T12:12:25.910Z,9.40
2024-03-16T12:15:27.035Z,9.00
2024-03-16T12:17:55.986Z,9.90
2024-03-16T12:20:24.350Z,10.20
2024-03-16T12:22:54.436Z,9.20
2024-03-16T12:25:28.201Z,9.60
2024-03-16T12:28:01.000Z,8.10
2024-03-16T12:30:35.523Z,10.10
2024-03-16T12:33:04.535Z,10.20
2024-03-16T12:35:36.768Z,8.20
2024-03-16T12:38:05.211Z,9.90
2024-03-16T12:40:35.640Z,9.60
2024-03-16T12:43:05.499Z,9.70
2024-03-16T12:45:33.745Z,11.90
2024-03-16T12:48:02.265Z,11.00
2024-03-16T12:50:30.610Z,13.70
2024-03-16T12:52:58.904Z,13.50
2024-03-16T12:55:27.584Z,12.90
2024-03-16T12:57:55.878Z,12.20
2024-03-16T13:00:27.011Z,14.30
2024-03-16T13:02:55.746Z,13.20
2024-03-16T13:05:24.304Z,13.70
2024-03-16T13:07:52.666Z,16.00
2024-03-16T13:10:22.939Z,14.30
2024-03-16T13:12:52.984Z,13.00
2024-03-16T13:15:22.044Z,12.30
2024-03-16T13:17:51.077Z,12.70
2024-03-16T13:20:19.428Z,13.00
2024-03-16T13:22:55.048Z,9.50
2024-03-16T13:25:29.724Z,12.30
2024-03-16T13:27:58.060Z,11.50
2024-03-16T13:30:26.404Z,9.10
2024-03-16T13:32:54.634Z,8.20
2024-03-16T13:35:24.022Z,10.50
2024-03-16T13:37:52.228Z,11.70
2024-03-16T13:40:20.612Z,11.60
2024-03-16T13:42:48.967Z,12.80
2024-03-16T13:45:17.330Z,12.60
2024-03-16T13:47:47.520Z,11.00
2024-03-16T13:50:15.890Z,10.60
2024-03-16T13:52:44.089Z,10.70
2024-03-16T13:55:19.324Z,10.20
2024-03-16T13:57:47.772Z,11.10
2024-03-16T14:00:20.194Z,13.10
2024-03-16T14:02:48.735Z,11.50
2024-03-16T14:05:18.140Z,10.60
2024-03-16T14:10:18.650Z,10.90
2024-03-16T14:12:50.226Z,11.30
2024-03-16T14:15:18.448Z,9.60
2024-03-16T14:17:47.384Z,9.30
2024-03-16T14:20:18.554Z,9.90
2024-03-16T14:22:50.115Z,11.30
2024-03-16T14:25:19.020Z,11.30
2024-03-16T14:27:48.733Z,10.00
2024-03-16T14:30:17.254Z,12.00
2024-03-16T14:32:47.704Z,13.30
2024-03-16T14:35:17.257Z,13.80
2024-03-16T14:37:46.321Z,11.10
2024-03-16T14:40:23.106Z,10.10
2024-03-16T14:42:52.025Z,11.40
2024-03-16T14:45:20.262Z,12.40
2024-03-16T14:47:48.559Z,11.40
2024-03-16T14:50:21.073Z,11.90
2024-03-16T14:52:49.431Z,12.30
2024-03-16T14:55:17.692Z,11.90
2024-03-16T14:57:46.061Z,13.10
2024-03-16T15:00:17.221Z,15.20
2024-03-16T15:02:45.497Z,13.30
2024-03-16T15:05:20.040Z,13.50
2024-03-16T15:07:48.462Z,13.20
2024-03-16T15:10:17.546Z,14.10
2024-03-16T15:12:46.303Z,13.20
2024-03-16T15:15:14.731Z,11.40
2024-03-16T15:17:42.877Z,11.80
2024-03-16T15:20:11.179Z,11.90
2024-03-16T15:22:40.692Z,10.70
2024-03-16T15:27:50.909Z,9.50
2024-03-16T15:30:19.670Z,11.90
2024-03-16T15:32:47.900Z,10.90
2024-03-16T15:35:16.234Z,11.10
2024-03-16T15:37:44.960Z,13.70
2024-03-16T15:40:16.288Z,11.20
2024-03-16T15:42:44.849Z,12.30
2024-03-16T15:45:14.605Z,14.20
2024-03-16T15:50:10.872Z,11.60
2024-03-16T15:52:39.189Z,10.80
2024-03-16T15:55:07.895Z,9.90
2024-03-16T15:57:36.570Z,10.30
2024-03-16T16:00:06.370Z,10.20
2024-03-16T16:02:35.546Z,9.40
2024-03-16T16:05:04.777Z,10.40
2024-03-16T16:07:33.190Z,10.00
2024-03-16T16:10:01.509Z,11.20
2024-03-16T16:12:30.878Z,10.60
2024-03-16T16:14:59.202Z,9.70
2024-03-16T16:17:27.464Z,10.30
2024-03-16T16:19:55.819Z,13.30
2024-03-16T16:22:24.216Z,11.20
2024-03-16T16:24:53.151Z,10.50
2024-03-16T16:27:21.529Z,12.00
2024-03-16T16:29:49.813Z,11.10
2024-03-16T16:32:18.149Z,12.30
2024-03-16T16:34:48.216Z,13.10
2024-03-16T16:37:16.524Z,12.30
2024-03-16T16:39:44.888Z,11.60
2024-03-16T16:42:15.812Z,14.60
2024-03-16T16:44:44.065Z,10.80
2024-03-16T16:47:12.439Z,13.60
2024-03-16T16:49:40.832Z,13.20
2024-03-16T16:52:09.189Z,13.80
2024-03-16T16:54:37.394Z,14.80
2024-03-16T16:57:05.705Z,13.90
2024-03-16T16:59:33.844Z,12.90
2024-03-16T17:02:04.610Z,13.70
2024-03-16T17:04:34.040Z,12.30
2024-03-16T17:12:00.253Z,13.20
2024-03-16T17:14:31.257Z,13.70
2024-03-16T17:16:59.978Z,11.00
2024-03-16T17:19:28.533Z,13.10
2024-03-16T17:21:58.429Z,11.10
2024-03-16T17:24:29.149Z,12.90
2024-03-16T17:26:58.180Z,12.90
2024-03-16T17:29:26.487Z,12.80
2024-03-16T17:31:54.680Z,13.60
2024-03-16T17:34:23.066Z,12.70
2024-03-16T17:36:51.373Z,14.80
2024-03-16T17:39:23.914Z,11.80
2024-03-16T17:41:55.636Z,12.30
2024-03-16T17:44:23.907Z,13.60
2024-03-16T17:46:52.234Z,12.80
2024-03-16T17:49:20.864Z,10.80
2024-03-16T17:51:51.242Z,12.10
2024-03-16T17:54:19.610Z,12.30
2024-03-16T17:56:47.959Z,13.50
2024-03-16T17:59:18.612Z,12.10
2024-03-16T18:01:46.906Z,11.10
2024-03-16T18:04:15.369Z,10.50
2024-03-16T18:06:43.739Z,13.70
2024-03-16T18:09:12.032Z,11.10
2024-03-16T18:11:40.417Z,10.80
2024-03-16T18:14:08.830Z,12.10
2024-03-16T18:16:43.842Z,12.00
2024-03-16T18:19:13.310Z,11.70
2024-03-16T18:21:41.923Z,12.00
2024-03-16T18:24:11.452Z,11.50
2024-03-16T18:26:40.859Z,11.70
2024-03-16T18:29:10.045Z,13.30
2024-03-16T18:31:38.590Z,9.80
2024-03-16T18:34:06.995Z,9.50
2024-03-16T18:36:35.261Z,13.10
2024-03-16T18:39:10.841Z,12.90
2024-03-16T18:41:39.086Z,12.00
2024-03-16T18:44:10.178Z,13.10
2024-03-16T18:46:38.421Z,12.20
2024-03-16T18:49:06.608Z,11.30
2024-03-16T18:51:36.536Z,14.50
2024-03-16T18:54:05.074Z,12.10
2024-03-16T18:56:33.343Z,11.40
2024-03-16T18:59:04.580Z,9.50
2024-03-16T19:01:32.892Z,11.90
2024-03-16T19:04:03.282Z,11.10
2024-03-16T19:06:32.461Z,10.80
2024-03-16T19:09:01.214Z,10.40
2024-03-16T19:11:29.515Z,12.10
2024-03-16T19:13:57.824Z,10.70
2024-03-16T19:16:26.205Z,10.60
2024-03-16T19:19:00.409Z,11.20
2024-03-16T19:21:28.717Z,11.50
2024-03-16T19:23:57.753Z,11.70
2024-03-16T19:26:26.147Z,12.30
2024-03-16T19:28:54.613Z,11.40
2024-03-16T19:31:23.192Z,12.20
2024-03-16T19:33:51.470Z,12.40
2024-03-16T19:36:24.468Z,13.50
2024-03-16T19:38:53.502Z,12.90
2024-03-16T19:41:23.582Z,11.90
2024-03-16T19:43:51.967Z,12.10
2024-03-16T19:46:20.424Z,10.60
2024-03-16T19:48:48.790Z,11.20
2024-03-16T19:51:17.191Z,12.50
2024-03-16T19:53:45.511Z,13.30
2024-03-16T19:56:13.976Z,11.40
2024-03-16T19:58:42.328Z,12.50
2024-03-16T20:01:10.713Z,12.10
2024-03-16T20:03:42.886Z,11.70
2024-03-16T20:06:14.133Z,13.80
2024-03-16T20:08:42.536Z,12.00
2024-03-16T20:11:11.545Z,13.10
2024-03-16T20:13:39.673Z,12.60
2024-03-16T20:16:10.145Z,12.30
2024-03-16T20:18:40.312Z,13.00
2024-03-16T20:21:08.674Z,13.70
2024-03-16T20:23:37.015Z,14.90
2024-03-16T20:26:06.745Z,14.50
2024-03-16T20:28:35.262Z,13.40
2024-03-16T20:31:03.677Z,16.40
2024-03-16T20:33:33.136Z,14.70
2024-03-16T20:38:29.666Z,13.70
2024-03-16T20:40:57.942Z,13.90
2024-03-16T20:43:26.049Z,14.50
2024-03-16T20:45:54.615Z,13.00
2024-03-16T20:48:22.744Z,14.00
2024-03-16T20:50:51.031Z,14.40
2024-03-16T20:53:19.956Z,13.70
2024-03-16T20:55:49.821Z,15.40
2024-03-16T20:58:18.168Z,14.30
2024-03-16T21:00:46.312Z,14.60
2024-03-16T21:03:14.642Z,14.70
2024-03-16T21:05:43.173Z,17.80
2024-03-16T21:08:11.459Z,16.30
2024-03-16T21:10:39.702Z,15.20
2024-03-16T21:13:07.845Z,15.30
2024-03-16T21:15:36.138Z,14.10
2024-03-16T21:18:04.934Z,17.20
2024-03-16T21:20:34.046Z,14.80
2024-03-16T21:23:02.280Z,15.20
2024-03-16T21:25:30.656Z,15.70
2024-03-16T21:27:59.200Z,17.20
2024-03-16T21:30:27.704Z,17.50
2024-03-16T21:32:56.167Z,16.00
2024-03-16T21:35:24.392Z,17.30
2024-03-16T21:37:56.798Z,16.20
2024-03-16T21:55:23.944Z,19.20
2024-03-16T21:57:52.316Z,16.40
2024-03-16T22:00:21.566Z,16.60
2024-03-16T22:02:49.821Z,17.60
2024-03-16T22:05:18.439Z,16.00
2024-03-16T22:07:46.806Z,18.10
2024-03-16T22:10:15.095Z,17.10
2024-03-16T22:12:48.296Z,16.70
2024-03-16T22:15:17.932Z,16.60
2024-03-16T22:20:14.505Z,15.80
2024-03-16T22:22:49.578Z,16.40
2024-03-16T22:25:18.971Z,16.90
2024-03-16T22:27:49.713Z,17.90
2024-03-16T22:30:18.694Z,21.70
2024-03-16T22:32:47.032Z,17.40
2024-03-16T22:35:16.707Z,16.30
2024-03-16T22:40:13.195Z,16.20
2024-03-16T22:42:42.706Z,16.80
2024-03-16T22:47:46.412Z,19.30
2024-03-16T22:50:14.819Z,21.00
2024-03-16T22:52:46.522Z,19.90
2024-03-16T22:55:15.028Z,17.60
2024-03-16T22:57:43.314Z,19.70
2024-03-16T23:00:20.156Z,18.60
2024-03-16T23:02:48.772Z,19.10
2024-03-16T23:05:17.141Z,19.20
2024-03-16T23:07:46.146Z,19.70
2024-03-16T23:10:16.014Z,19.70
2024-03-16T23:12:44.211Z,20.90
2024-03-16T23:15:12.703Z,19.20
2024-03-16T23:17:40.927Z,22.40
2024-03-16T23:20:09.891Z,19.10
2024-03-16T23:22:43.066Z,18.60
2024-03-16T23:25:11.463Z,21.20
2024-03-16T23:27:39.720Z,21.50
2024-03-16T23:30:10.167Z,18.30
2024-03-16T23:32:39.967Z,20.60
2024-03-16T23:35:12.040Z,20.10
2024-03-16T23:37:40.583Z,21.30
2024-03-16T23:40:14.525Z,22.60
2024-03-16T23:42:43.002Z,20.10
2024-03-16T23:45:11.134Z,21.60
2024-03-16T23:47:39.673Z,23.50
2024-03-16T23:50:09.128Z,21.90
2024-03-16T23:52:37.857Z,25.00
2024-03-16T23:55:06.911Z,24.80
2024-03-16T23:57:35.132Z,28.00
